Haynes, North Dakota
Current Conditions -  °F | °C
As of 11:53 PM on Tuesday 21 Oct 2014 (Local Time) from KHEI Reporting Station
Scattered Clouds Scattered Clouds  
Wind Chill: 59°   Ceiling: Unl
Heat Index: 59°   Visibility: 10mi
Dew Point: 42°   Wind: 8mph
Humidity: 53%   Direction: 250°WSW
Pressure: 29.73"   Gusts: NA
Location:  46.0942°N, 102.462°W
Report Text: KHEI 220553Z AUTO 25007KT 10SM SCT110 15/06 A2973 RMK AO2 WSHFT 0457 LTG DSNT S SLP054 T01500056 10211 20139 53019
Loading
Personal Weather Stations






























Interactive Weather Map
Tropical Storm Tracking
New forecast layout! Learn more

10-Day Weather Forecast

Advertisements
Track Severe Weather on mobile